Mappsville, Virginia
Current Conditions -  °F | °C
As of 6:54 AM on Friday 28 Nov 2014 (Local Time) from KWAL Reporting Station
Clear Clear  
Wind Chill: 24°   Ceiling: Unl
Heat Index: 31°   Visibility: 10mi
Dew Point: 23°   Wind: 7mph
Humidity: 72%   Direction: 330°NNW
Pressure: 30.25"   Gusts: NA
Location:  37.85°N, 75.57°W
Report Text: KWAL 281154Z AUTO 33006KT 10SM CLR M01/M05 A3025 RMK AO2 SLP238 70001 T10061050 10017 21006 53020
Loading
Personal Weather Stations






























Interactive Weather Map New forecast layout! Learn more

10-Day Weather Forecast

Advertisements
Track Severe Weather on mobile